Time;durP1;ratioP1;P1;durP2;ratioP2;P2;SDS_P1;SDS_P2;PMS_P1;PMS_P2;Temp;Humidity;BMP_temperature;BMP_pressure;BME280_temperature;BME280_humidity;BME280_pressure;Samples;Min_cycle;Max_cycle;Signal;HPM_P1;HPM_P2
2022/07/27 00:02:08;;;;;;;;;;;;;;;19.39;48.84;96470.09;5077236;28;19986;-72
2022/07/27 00:04:34;;;;;;;;;;;;;;;19.39;49.35;96474.63;5076840;28;19989;-72
2022/07/27 00:07:00;;;;;;;;;;;;;;;19.38;49.10;96470.38;5076739;28;19979;-72
2022/07/27 00:09:26;;;;;;;;;;;;;;;19.36;48.52;96465.34;5077031;28;19998;-73
2022/07/27 00:11:52;;;;;;;;;;;;;;;19.31;49.04;96467.22;5076637;28;19987;-73
2022/07/27 00:14:18;;;;;;;;;;;;;;;19.32;49.34;96466.94;5076680;28;19963;-72
2022/07/27 00:16:44;;;;;;;;;;;;;;;19.33;49.62;96473.06;5076740;28;19954;-72
2022/07/27 00:19:10;;;;;;;;;;;;;;;19.33;49.92;96475.72;5076677;28;19967;-72
2022/07/27 00:21:36;;;;;;;;;;;;;;;19.33;49.87;96475.72;5076606;28;20017;-73
2022/07/27 00:24:02;;;;;;;;;;;;;;;19.31;49.62;96467.22;5076650;28;19952;-72
2022/07/27 00:26:28;;;;;;;;;;;;;;;19.27;49.10;96464.31;5076365;28;20055;-72
2022/07/27 00:28:53;;;;;;;;;;;;;;;19.18;49.83;96461.41;5076324;28;20090;-72
2022/07/27 00:31:19;;;;;;;;;;;;;;;19.08;49.71;96466.78;5076693;28;19966;-72
2022/07/27 00:33:45;;;;;;;;;;;;;;;19.03;50.09;96469.47;5076285;28;19960;-72
2022/07/27 00:36:11;;;;;;;;;;;;;;;19.01;50.30;96466.28;5076604;28;20421;-72
2022/07/27 00:38:37;;;;;;;;;;;;;;;19.00;50.35;96462.84;5076198;28;19962;-72
2022/07/27 00:41:03;;;;;;;;;;;;;;;19.01;50.96;96472.38;5075983;28;19961;-72
2022/07/27 00:43:29;;;;;;;;;;;;;;;19.03;50.44;96475.56;5076183;28;20323;-73
2022/07/27 00:45:55;;;;;;;;;;;;;;;19.04;51.02;96468.38;5076350;28;20035;-72
2022/07/27 00:48:21;;;;;;;;;;;;;;;19.03;50.72;96467.59;5076002;28;20069;-72
2022/07/27 00:50:47;;;;;;;;;;;;;;;19.03;51.86;96469.47;5076083;28;20010;-72
2022/07/27 00:53:13;;;;;;;;;;;;;;;19.00;50.91;96462.84;5076093;28;20412;-72
2022/07/27 00:55:39;;;;;;;;;;;;;;;18.97;50.77;96463.34;5075973;28;19966;-72
2022/07/27 00:58:07;;;;;;;;;;;;;;;18.96;51.22;96461.78;5076063;28;19962;-72
2022/07/27 01:00:34;;;;;;;;;;;;;;;18.94;50.87;96447.16;5075494;28;20400;-72
2022/07/27 01:03:00;;;;;;;;;;;;;;;18.93;51.84;96449.03;5075147;28;20330;-73
2022/07/27 01:05:27;;;;;;;;;;;;;;;18.93;51.74;96453.53;5075437;28;19960;-73
2022/07/27 01:07:54;;;;;;;;;;;;;;;18.92;51.74;96449.28;5075859;28;19963;-72
2022/07/27 01:10:20;;;;;;;;;;;;;;;18.89;51.65;96447.97;5074854;28;19989;-72
2022/07/27 01:12:46;;;;;;;;;;;;;;;18.88;52.00;96445.56;5075300;28;20026;-72
2022/07/27 01:15:12;;;;;;;;;;;;;;;18.86;51.91;96440.56;5075802;28;20006;-73
2022/07/27 01:17:38;;;;;;;;;;;;;;;18.86;51.34;96445.88;5075646;28;19958;-74
2022/07/27 01:20:04;;;;;;;;;;;;;;;18.84;51.62;96446.13;5075434;28;20012;-73
2022/07/27 01:22:30;;;;;;;;;;;;;;;18.80;53.04;96447.72;5075782;28;19962;-73
2022/07/27 01:24:56;;;;;;;;;;;;;;;18.77;51.93;96442.13;5057470;28;19959;-73
2022/07/27 01:27:22;;;;;;;;;;;;;;;18.72;51.75;96431.53;5075228;28;20015;-73
2022/07/27 01:29:48;;;;;;;;;;;;;;;18.67;52.76;96429.69;5074701;28;19975;-73
2022/07/27 01:32:14;;;;;;;;;;;;;;;18.66;52.02;96420.91;5075468;28;20329;-72
2022/07/27 01:34:40;;;;;;;;;;;;;;;18.60;50.79;96410.56;5075375;28;19961;-72
2022/07/27 01:37:06;;;;;;;;;;;;;;;18.55;52.84;96413.25;5075878;28;20054;-72
2022/07/27 01:39:32;;;;;;;;;;;;;;;18.45;53.76;96417.50;5075319;28;20316;-73
2022/07/27 01:41:59;;;;;;;;;;;;;;;18.34;52.84;96413.28;5075201;28;19964;-72
2022/07/27 01:44:25;;;;;;;;;;;;;;;18.23;54.35;96424.97;5057329;28;20421;-72
2022/07/27 01:46:51;;;;;;;;;;;;;;;18.16;53.71;96413.81;5074326;28;19953;-72
2022/07/27 01:49:17;;;;;;;;;;;;;;;18.18;54.43;96404.53;5069823;28;19976;-72
2022/07/27 01:51:43;;;;;;;;;;;;;;;18.23;54.21;96407.19;5074985;28;20015;-72
2022/07/27 01:54:09;;;;;;;;;;;;;;;18.28;53.60;96403.72;5075537;28;19963;-72
2022/07/27 01:56:35;;;;;;;;;;;;;;;18.29;53.80;96397.38;5074988;28;20053;-74
2022/07/27 01:59:00;;;;;;;;;;;;;;;18.30;53.22;96392.84;5074558;28;19968;-72
2022/07/27 02:01:26;;;;;;;;;;;;;;;18.29;53.47;96389.41;5074744;28;20041;-72
2022/07/27 02:03:52;;;;;;;;;;;;;;;18.27;54.06;96399.50;5074371;28;20337;-72
2022/07/27 02:06:18;;;;;;;;;;;;;;;18.28;54.04;96387.00;5056924;28;19980;-72
2022/07/27 02:08:44;;;;;;;;;;;;;;;18.28;53.95;96382.50;5074673;28;20448;-72
2022/07/27 02:13:54;;;;;;;;;;;;;;;18.25;54.47;96383.81;5074738;28;19961;-73
2022/07/27 02:16:20;;;;;;;;;;;;;;;18.24;54.55;96389.41;5074440;28;20002;-73
2022/07/27 02:18:46;;;;;;;;;;;;;;;18.23;54.60;96390.47;5075379;28;20417;-73
2022/07/27 02:21:12;;;;;;;;;;;;;;;18.23;54.07;96390.47;5074474;28;19955;-72
2022/07/27 02:23:39;;;;;;;;;;;;;;;18.24;54.11;96386.75;5074582;28;20041;-72
2022/07/27 02:26:05;;;;;;;;;;;;;;;18.23;54.12;96399.22;5073423;28;20408;-72
2022/07/27 02:28:31;;;;;;;;;;;;;;;18.24;54.49;96397.38;5072074;28;20326;-72
2022/07/27 02:30:57;;;;;;;;;;;;;;;18.21;54.65;96393.38;5072923;28;19983;-72
2022/07/27 02:33:23;;;;;;;;;;;;;;;18.20;54.17;96397.09;5073418;28;20056;-72
2022/07/27 02:35:49;;;;;;;;;;;;;;;18.21;54.24;96395.25;5073335;28;20413;-72
2022/07/27 02:38:15;;;;;;;;;;;;;;;18.21;54.65;96403.22;5061591;28;19961;-73
2022/07/27 02:40:41;;;;;;;;;;;;;;;18.20;55.82;96398.97;5074185;28;19967;-73
2022/07/27 02:43:07;;;;;;;;;;;;;;;18.18;55.13;96398.44;5074160;28;20053;-73
2022/07/27 02:45:33;;;;;;;;;;;;;;;18.17;55.04;96399.50;5073938;28;19990;-73
2022/07/27 02:47:59;;;;;;;;;;;;;;;18.14;55.45;96397.38;5074230;28;19955;-72
2022/07/27 02:50:24;;;;;;;;;;;;;;;18.09;55.51;96400.84;5074346;28;20528;-72
2022/07/27 02:52:50;;;;;;;;;;;;;;;18.09;55.23;96402.69;5073944;28;19967;-72
2022/07/27 02:55:16;;;;;;;;;;;;;;;18.09;55.28;96405.34;5073776;28;19953;-72
2022/07/27 02:57:42;;;;;;;;;;;;;;;18.08;55.47;96409.88;5073802;28;19967;-72
2022/07/27 03:00:11;;;;;;;;;;;;;;;18.10;55.50;96406.94;5073756;28;19963;-71
2022/07/27 03:02:37;;;;;;;;;;;;;;;18.09;55.29;96408.00;5074059;28;19957;-72
2022/07/27 03:05:06;;;;;;;;;;;;;;;18.09;55.67;96414.09;5063040;28;20450;-71
2022/07/27 03:07:32;;;;;;;;;;;;;;;18.05;55.76;96403.22;5055659;28;19958;-71
2022/07/27 03:09:58;;;;;;;;;;;;;;;18.04;55.67;96401.63;5073679;28;19969;-72
2022/07/27 03:12:24;;;;;;;;;;;;;;;17.98;56.26;96405.34;5073572;28;20004;-71
2022/07/27 03:14:50;;;;;;;;;;;;;;;17.94;55.91;96404.28;5073851;28;19961;-71
2022/07/27 03:17:16;;;;;;;;;;;;;;;17.88;56.35;96402.69;5073587;28;20007;-71
2022/07/27 03:19:42;;;;;;;;;;;;;;;17.88;56.52;96413.31;5073866;28;19996;-71
2022/07/27 03:22:08;;;;;;;;;;;;;;;17.90;56.37;96413.84;5073665;28;20436;-71
2022/07/27 03:24:34;;;;;;;;;;;;;;;17.91;56.25;96412.78;5073493;28;19960;-71
2022/07/27 03:27:00;;;;;;;;;;;;;;;17.94;56.51;96406.16;5073471;28;19989;-72
2022/07/27 03:29:26;;;;;;;;;;;;;;;17.94;56.71;96406.94;5073175;28;19959;-72
2022/07/27 03:31:51;;;;;;;;;;;;;;;17.95;57.81;96411.16;5073553;28;19968;-71
2022/07/27 03:34:17;;;;;;;;;;;;;;;17.96;57.57;96404.03;5073278;28;19969;-72
2022/07/27 03:36:43;;;;;;;;;;;;;;;17.97;57.38;96398.44;5073346;28;19968;-72
2022/07/27 03:39:09;;;;;;;;;;;;;;;17.98;57.64;96409.88;5073362;28;19958;-72
2022/07/27 03:41:35;;;;;;;;;;;;;;;17.91;55.58;96393.41;5072705;28;20008;-72
2022/07/27 03:44:01;;;;;;;;;;;;;;;17.79;57.92;96420.19;5055234;28;19970;-72
2022/07/27 03:46:27;;;;;;;;;;;;;;;17.76;58.32;96413.53;5073164;28;19963;-71
2022/07/27 03:48:53;;;;;;;;;;;;;;;17.77;57.99;96401.09;5073396;28;19965;-71
2022/07/27 03:51:19;;;;;;;;;;;;;;;17.80;58.49;96411.94;5073154;28;20019;-71
2022/07/27 03:53:45;;;;;;;;;;;;;;;17.84;58.05;96402.41;5072167;28;19959;-71
2022/07/27 03:56:11;;;;;;;;;;;;;;;17.86;57.85;96399.50;5072899;28;20015;-71
2022/07/27 03:58:37;;;;;;;;;;;;;;;17.89;58.01;96408.78;5073200;28;19960;-71
2022/07/27 04:01:03;;;;;;;;;;;;;;;17.91;58.21;96406.66;5073180;28;20007;-71
2022/07/27 04:03:29;;;;;;;;;;;;;;;17.91;57.65;96396.88;5072734;28;19958;-71
2022/07/27 04:05:55;;;;;;;;;;;;;;;17.90;57.80;96402.44;5072980;28;19985;-71
2022/07/27 04:08:20;;;;;;;;;;;;;;;17.92;58.06;96408.28;5038785;28;20085;-71
2022/07/27 04:10:46;;;;;;;;;;;;;;;17.92;57.72;96409.06;5072662;28;19981;-71
2022/07/27 04:13:13;;;;;;;;;;;;;;;17.94;58.09;96403.50;5074070;28;20036;-72
2022/07/27 04:15:39;;;;;;;;;;;;;;;17.94;57.74;96409.59;5073143;28;20011;-71
2022/07/27 04:18:05;;;;;;;;;;;;;;;17.95;57.87;96405.88;5072904;28;19975;-71
2022/07/27 04:20:31;;;;;;;;;;;;;;;17.97;58.35;96403.75;5072536;28;20376;-71
2022/07/27 04:22:57;;;;;;;;;;;;;;;17.98;58.66;96410.66;5073094;28;19968;-71
2022/07/27 04:25:23;;;;;;;;;;;;;;;18.01;58.46;96409.31;5055270;28;19957;-71
2022/07/27 04:27:49;;;;;;;;;;;;;;;18.02;58.17;96410.94;5072867;28;20000;-71
2022/07/27 04:30:15;;;;;;;;;;;;;;;18.03;58.55;96423.13;5072619;28;19966;-71
2022/07/27 04:32:40;;;;;;;;;;;;;;;17.99;58.35;96414.88;5073238;28;19962;-73
2022/07/27 04:35:07;;;;;;;;;;;;;;;17.92;57.22;96410.94;5072739;28;19960;-71
2022/07/27 04:37:33;;;;;;;;;;;;;;;17.87;58.96;96416.22;5072781;28;19965;-72
2022/07/27 04:39:59;;;;;;;;;;;;;;;17.89;58.64;96422.88;5072985;28;19958;-72
2022/07/27 04:42:25;;;;;;;;;;;;;;;17.93;58.80;96418.63;5071751;28;19963;-71
2022/07/27 04:44:51;;;;;;;;;;;;;;;17.97;58.91;96417.00;5075061;28;19968;-71
2022/07/27 04:47:17;;;;;;;;;;;;;;;18.00;58.45;96408.53;5076904;28;20334;-71
2022/07/27 04:49:43;;;;;;;;;;;;;;;18.04;59.11;96419.44;5075595;28;19956;-71
2022/07/27 04:52:09;;;;;;;;;;;;;;;18.11;59.15;96427.13;5076240;28;20013;-71
2022/07/27 04:54:35;;;;;;;;;;;;;;;18.15;58.65;96426.31;5076032;28;19960;-71
2022/07/27 04:57:01;;;;;;;;;;;;;;;18.20;58.78;96422.84;5075928;28;20014;-71
2022/07/27 04:59:27;;;;;;;;;;;;;;;18.24;58.65;96432.66;5075236;28;19962;-71
2022/07/27 05:01:53;;;;;;;;;;;;;;;18.29;58.84;96437.19;5075864;28;19958;-71
2022/07/27 05:04:19;;;;;;;;;;;;;;;18.31;58.82;96429.75;5075924;28;20019;-71
2022/07/27 05:06:45;;;;;;;;;;;;;;;18.34;58.50;96423.09;5057975;28;20051;-75
2022/07/27 05:09:11;;;;;;;;;;;;;;;18.35;59.13;96433.47;5075525;28;19963;-71
2022/07/27 05:11:37;;;;;;;;;;;;;;;18.36;59.91;96440.34;5075196;28;20032;-71
2022/07/27 05:14:03;;;;;;;;;;;;;;;18.40;59.15;96436.09;5076139;28;19972;-71
2022/07/27 05:16:29;;;;;;;;;;;;;;;18.41;59.01;96429.72;5057536;28;20053;-71
2022/07/27 05:18:55;;;;;;;;;;;;;;;18.43;59.04;96429.44;5075664;28;19958;-71
2022/07/27 05:21:21;;;;;;;;;;;;;;;18.44;58.28;96428.41;5075362;28;19959;-71
2022/07/27 05:23:47;;;;;;;;;;;;;;;18.45;59.43;96444.06;5074676;28;20458;-71
2022/07/27 05:26:13;;;;;;;;;;;;;;;18.48;58.87;96449.88;5058173;28;20056;-71
2022/07/27 05:28:39;;;;;;;;;;;;;;;18.52;60.13;96461.56;5075747;28;19960;-71
2022/07/27 05:31:05;;;;;;;;;;;;;;;18.56;60.27;96462.63;5075378;28;20463;-71
2022/07/27 05:33:30;;;;;;;;;;;;;;;18.57;59.06;96462.38;5075413;28;20003;-72
2022/07/27 05:35:56;;;;;;;;;;;;;;;18.59;58.66;96460.22;5075652;28;20096;-72
2022/07/27 05:38:22;;;;;;;;;;;;;;;18.62;58.66;96465.00;5075269;28;19954;-72
2022/07/27 05:40:48;;;;;;;;;;;;;;;18.62;59.00;96472.19;5075698;28;19959;-72
2022/07/27 05:43:14;;;;;;;;;;;;;;;18.64;59.08;96472.72;5075385;28;19963;-72
2022/07/27 05:45:40;;;;;;;;;;;;;;;18.66;59.44;96481.19;5075239;28;20370;-72
2022/07/27 05:48:06;;;;;;;;;;;;;;;18.74;58.09;96463.94;5075271;28;19963;-72
2022/07/27 05:50:31;;;;;;;;;;;;;;;18.78;57.77;96457.84;5075006;28;19972;-72
2022/07/27 05:52:59;;;;;;;;;;;;;;;18.91;59.23;96474.28;5057227;28;20043;-72
2022/07/27 05:55:25;;;;;;;;;;;;;;;19.00;58.45;96472.66;5075348;28;19955;-72
2022/07/27 05:57:51;;;;;;;;;;;;;;;19.09;58.14;96471.03;5075038;28;20439;-72
2022/07/27 06:00:17;;;;;;;;;;;;;;;19.25;57.80;96463.78;5074851;28;20039;-71
2022/07/27 06:02:43;;;;;;;;;;;;;;;19.43;57.52;96459.72;5074485;28;19955;-71
2022/07/27 06:05:09;;;;;;;;;;;;;;;19.51;57.17;96456.50;5075231;28;19961;-72
2022/07/27 06:10:19;;;;;;;;;;;;;;;19.59;57.13;96468.38;5075099;28;19970;-72
2022/07/27 06:12:45;;;;;;;;;;;;;;;19.50;56.22;96454.09;5074643;28;20513;-72
2022/07/27 06:15:12;;;;;;;;;;;;;;;19.53;57.64;96469.50;5074564;28;20320;-72
2022/07/27 06:17:38;;;;;;;;;;;;;;;19.64;56.87;96465.72;5074416;28;19955;-73
2022/07/27 06:20:04;;;;;;;;;;;;;;;19.76;56.16;96458.22;5074643;28;19991;-72
2022/07/27 06:22:30;;;;;;;;;;;;;;;19.79;56.26;96465.66;5074406;28;19957;-73
2022/07/27 06:24:57;;;;;;;;;;;;;;;19.81;56.49;96473.34;5074649;28;19962;-72
2022/07/27 06:27:23;;;;;;;;;;;;;;;19.83;56.34;96464.03;5074874;28;19956;-72
2022/07/27 06:29:48;;;;;;;;;;;;;;;19.89;56.23;96464.00;5074450;28;19998;-72
2022/07/27 06:32:14;;;;;;;;;;;;;;;19.93;56.07;96459.69;5074284;28;20448;-72
2022/07/27 06:34:40;;;;;;;;;;;;;;;20.05;56.17;96470.78;5074347;28;20004;-72
2022/07/27 06:37:06;;;;;;;;;;;;;;;20.03;56.03;96463.09;5074117;28;19998;-72
2022/07/27 06:39:32;;;;;;;;;;;;;;;20.06;55.81;96459.88;5074148;28;19987;-72
2022/07/27 06:41:58;;;;;;;;;;;;;;;20.07;55.75;96450.81;5074891;28;20457;-72
2022/07/27 06:44:24;;;;;;;;;;;;;;;20.16;55.48;96455.53;5074260;28;20320;-72
2022/07/27 06:46:50;;;;;;;;;;;;;;;20.30;55.44;96464.47;5074010;28;20043;-72
2022/07/27 06:49:16;;;;;;;;;;;;;;;20.34;55.60;96456.72;5074220;28;20376;-72
2022/07/27 06:51:41;;;;;;;;;;;;;;;20.33;55.65;96455.94;5073992;28;19978;-72
2022/07/27 06:54:07;;;;;;;;;;;;;;;20.44;55.33;96445.97;5074405;28;20051;-72
2022/07/27 06:56:33;;;;;;;;;;;;;;;20.62;54.75;96439.97;5074082;28;20040;-74
2022/07/27 06:58:59;;;;;;;;;;;;;;;20.82;54.12;96438.94;5073698;28;19959;-73
2022/07/27 07:01:25;;;;;;;;;;;;;;;20.94;54.76;96443.88;5073914;28;20044;-72
2022/07/27 07:03:51;;;;;;;;;;;;;;;20.95;54.22;96445.47;5073728;28;20004;-72
2022/07/27 07:06:17;;;;;;;;;;;;;;;21.16;53.74;96424.69;5073460;28;20003;-72
2022/07/27 07:08:43;;;;;;;;;;;;;;;21.36;52.78;96418.28;5073879;28;19957;-72
2022/07/27 07:11:10;;;;;;;;;;;;;;;21.54;52.85;96418.59;5073440;28;20424;-71
2022/07/27 07:13:36;;;;;;;;;;;;;;;21.67;52.29;96415.19;5073771;28;19965;-72
2022/07/27 07:16:02;;;;;;;;;;;;;;;21.61;52.32;96409.16;5073689;28;19955;-72
2022/07/27 07:18:28;;;;;;;;;;;;;;;21.60;52.35;96418.25;5059166;28;19958;-72
2022/07/27 07:20:54;;;;;;;;;;;;;;;21.62;52.50;96421.41;5073503;28;20413;-72
2022/07/27 07:23:20;;;;;;;;;;;;;;;21.53;52.14;96414.38;5074263;28;20034;-72
2022/07/27 07:25:46;;;;;;;;;;;;;;;21.37;52.31;96419.88;5074028;28;20002;-71
2022/07/27 07:28:12;;;;;;;;;;;;;;;21.20;52.86;96423.03;5073364;28;20023;-72
2022/07/27 07:30:38;;;;;;;;;;;;;;;21.20;53.61;96430.25;5073560;28;19972;-72
2022/07/27 07:33:03;;;;;;;;;;;;;;;21.26;53.73;96429.09;5073608;28;19969;-72
2022/07/27 07:35:30;;;;;;;;;;;;;;;21.41;53.00;96422.75;5073577;28;20408;-71
2022/07/27 07:37:56;;;;;;;;;;;;;;;21.54;51.91;96411.38;5073381;28;19967;-72
2022/07/27 07:40:22;;;;;;;;;;;;;;;21.44;51.93;96414.19;5073587;28;19962;-71
2022/07/27 07:42:56;;;;;;;;;;;;;;;21.36;52.10;96418.28;5073749;28;19959;-71
2022/07/27 07:45:23;;;;;;;;;;;;;;;21.36;52.25;96420.97;5072782;28;19961;-72
2022/07/27 07:47:49;;;;;;;;;;;;;;;21.35;53.03;96424.69;5073770;28;19955;-72
2022/07/27 07:50:15;;;;;;;;;;;;;;;21.34;53.07;96427.66;5073408;28;19962;-72
2022/07/27 07:52:41;;;;;;;;;;;;;;;21.43;52.67;96428.63;5073465;28;19957;-71
2022/07/27 07:55:07;;;;;;;;;;;;;;;21.61;52.59;96424.41;5073217;28;19965;-72
2022/07/27 07:57:33;;;;;;;;;;;;;;;21.73;52.54;96424.72;5073325;28;19970;-72
2022/07/27 07:59:59;;;;;;;;;;;;;;;21.78;52.39;96427.34;5073154;28;20335;-72
2022/07/27 08:02:25;;;;;;;;;;;;;;;21.80;51.63;96408.38;5073546;28;19963;-72
2022/07/27 08:04:51;;;;;;;;;;;;;;;21.75;51.99;96413.75;5073392;28;19970;-72
2022/07/27 08:07:17;;;;;;;;;;;;;;;21.74;52.17;96425.53;5073388;28;19960;-74
2022/07/27 08:09:43;;;;;;;;;;;;;;;21.79;52.50;96428.13;5055365;28;20417;-72
2022/07/27 08:12:09;;;;;;;;;;;;;;;21.79;51.93;96426.22;5073234;28;20000;-72
2022/07/27 08:14:35;;;;;;;;;;;;;;;21.81;51.59;96424.06;5073214;28;19974;-72
2022/07/27 08:17:01;;;;;;;;;;;;;;;21.91;51.93;96435.69;5073180;28;19963;-72
2022/07/27 08:19:27;;;;;;;;;;;;;;;21.93;51.57;96422.84;5076153;28;20028;-72
2022/07/27 08:21:52;;;;;;;;;;;;;;;21.97;51.43;96429.97;5076425;28;19967;-72
2022/07/27 08:24:18;;;;;;;;;;;;;;;22.05;52.03;96436.53;5076937;28;19961;-72
2022/07/27 08:26:44;;;;;;;;;;;;;;;22.07;51.17;96432.50;5076782;28;20325;-71
2022/07/27 08:29:10;;;;;;;;;;;;;;;22.15;51.55;96432.91;5076523;28;20061;-71
2022/07/27 08:31:36;;;;;;;;;;;;;;;22.22;50.91;96425.31;5076478;28;20037;-74
2022/07/27 08:34:02;;;;;;;;;;;;;;;22.52;50.82;96410.66;5076681;28;19963;-71
2022/07/27 08:36:28;;;;;;;;;;;;;;;22.73;49.27;96400.34;5076603;28;20319;-72
2022/07/27 08:38:54;;;;;;;;;;;;;;;22.73;49.54;96407.59;5076744;28;19967;-71
2022/07/27 08:41:21;;;;;;;;;;;;;;;22.66;49.62;96416.78;5058768;28;20326;-72
2022/07/27 08:43:47;;;;;;;;;;;;;;;22.52;50.12;96432.03;5076814;28;20329;-72
2022/07/27 08:46:16;;;;;;;;;;;;;;;22.38;49.93;96417.84;5076319;28;19958;-72
2022/07/27 08:48:42;;;;;;;;;;;;;;;22.28;49.91;96418.84;5076490;28;19964;-72
2022/07/27 08:51:08;;;;;;;;;;;;;;;22.31;50.07;96415.56;5076299;28;19966;-72
2022/07/27 08:53:34;;;;;;;;;;;;;;;22.29;50.45;96434.53;5076545;28;19953;-72
2022/07/27 08:56:00;;;;;;;;;;;;;;;22.28;49.85;96421.50;5076135;28;19956;-72
2022/07/27 08:58:26;;;;;;;;;;;;;;;22.38;50.25;96425.84;5076317;28;19959;-72
2022/07/27 09:00:52;;;;;;;;;;;;;;;22.54;49.88;96421.03;5076280;28;19974;-72
2022/07/27 09:03:19;;;;;;;;;;;;;;;22.69;50.41;96421.53;5042200;28;19966;-71
2022/07/27 09:05:46;;;;;;;;;;;;;;;22.90;49.74;96416.59;5076026;28;19967;-72
2022/07/27 09:08:13;;;;;;;;;;;;;;;23.05;49.50;96417.41;5076184;28;19957;-71
2022/07/27 09:10:40;;;;;;;;;;;;;;;22.98;48.80;96409.75;5075774;28;19967;-72
2022/07/27 09:13:19;;;;;;;;;;;;;;;23.14;48.99;96409.47;5075853;28;19979;-72
2022/07/27 09:15:46;;;;;;;;;;;;;;;23.12;48.51;96408.97;5061587;28;19958;-72
2022/07/27 09:18:32;;;;;;;;;;;;;;;23.30;48.92;96411.53;5075782;28;19955;-72
2022/07/27 09:21:16;;;;;;;;;;;;;;;23.57;48.50;96406.41;5075060;28;19959;-76
2022/07/27 09:23:44;;;;;;;;;;;;;;;23.57;46.44;96393.81;5074900;28;19962;-72
2022/07/27 09:26:19;;;;;;;;;;;;;;;23.44;46.82;96394.66;5075724;28;19961;-72
2022/07/27 09:28:45;;;;;;;;;;;;;;;23.46;47.20;96403.97;5075466;28;19952;-72
2022/07/27 09:31:12;;;;;;;;;;;;;;;23.54;47.37;96402.47;5057070;28;20324;-72
2022/07/27 09:33:43;;;;;;;;;;;;;;;23.58;47.01;96402.63;5061781;28;19953;-71
2022/07/27 09:36:09;;;;;;;;;;;;;;;23.64;47.74;96415.59;5075893;28;19978;-72
2022/07/27 09:38:35;;;;;;;;;;;;;;;23.66;47.00;96413.41;5075365;28;19965;-72
2022/07/27 09:41:02;;;;;;;;;;;;;;;23.81;46.69;96398.09;5075424;28;20330;-73
2022/07/27 09:43:28;;;;;;;;;;;;;;;23.90;46.70;96407.00;5075455;28;20415;-72
2022/07/27 09:45:54;;;;;;;;;;;;;;;23.98;46.83;96406.28;5075317;28;19968;-72
2022/07/27 09:48:20;;;;;;;;;;;;;;;;;;5075000;28;19982;-72
2022/07/27 09:50:58;;;;;;;;;;;;;;;23.90;46.05;96409.69;5057709;28;19996;-72
2022/07/27 09:53:28;;;;;;;;;;;;;;;23.85;46.01;96407.13;5065379;28;19958;-72
2022/07/27 09:56:03;;;;;;;;;;;;;;;23.93;46.63;96410.97;5075086;28;19952;-73
2022/07/27 09:58:39;;;;;;;;;;;;;;;23.87;46.02;96411.06;5074976;28;19968;-73
2022/07/27 10:01:06;;;;;;;;;;;;;;;23.81;46.80;96422.22;5075009;28;19958;-73
2022/07/27 10:03:32;;;;;;;;;;;;;;;23.87;46.58;96424.47;5074899;28;19961;-73
2022/07/27 10:05:58;;;;;;;;;;;;;;;23.92;45.92;96407.50;5075170;28;19965;-73
2022/07/27 10:08:24;;;;;;;;;;;;;;;24.03;46.47;96424.13;5074837;28;19971;-72
2022/07/27 10:10:50;;;;;;;;;;;;;;;24.11;46.08;96413.44;5074887;28;19958;-73
2022/07/27 10:13:16;;;;;;;;;;;;;;;24.08;46.38;96427.44;5074719;28;19968;-72
2022/07/27 10:15:42;;;;;;;;;;;;;;;24.05;45.90;96422.72;5074681;28;19970;-73
2022/07/27 10:18:11;;;;;;;;;;;;;;;24.19;45.10;96419.97;5075082;28;19964;-72
2022/07/27 10:20:38;;;;;;;;;;;;;;;24.23;46.34;96430.84;5074523;28;19965;-72
2022/07/27 10:23:04;;;;;;;;;;;;;;;24.10;45.42;96422.56;5074484;28;19963;-73
2022/07/27 10:25:30;;;;;;;;;;;;;;;23.98;46.53;96437.63;5074480;28;20339;-74
2022/07/27 10:28:15;;;;;;;;;;;;;;;23.94;46.78;96431.28;5074609;28;19956;-73
2022/07/27 10:30:41;;;;;;;;;;;;;;;23.93;46.28;96430.50;5074467;28;19957;-73
2022/07/27 10:33:14;;;;;;;;;;;;;;;24.04;46.57;96429.19;5074624;28;19967;-73
2022/07/27 10:35:40;;;;;;;;;;;;;;;24.25;46.41;96425.97;5074535;28;19952;-73
2022/07/27 10:38:11;;;;;;;;;;;;;;;24.41;44.95;96408.41;5074063;28;19955;-74
2022/07/27 10:40:38;;;;;;;;;;;;;;;24.52;44.82;96412.44;5074454;28;19964;-73
2022/07/27 10:43:15;;;;;;;;;;;;;;;24.58;45.37;96418.47;5074083;28;19964;-73
2022/07/27 10:45:45;;;;;;;;;;;;;;;24.60;43.45;96410.91;5074099;28;19978;-73
2022/07/27 10:48:30;;;;;;;;;;;;;;;24.64;44.37;96419.13;5073927;28;19957;-73
2022/07/27 10:50:55;;;;;;;;;;;;;;;24.48;43.22;96411.47;5073894;28;19958;-73
2022/07/27 10:53:31;;;;;;;;;;;;;;;24.31;43.78;96416.72;5073924;28;20449;-72
2022/07/27 10:55:57;;;;;;;;;;;;;;;24.34;43.83;96415.31;5074135;28;19951;-73
2022/07/27 10:58:24;;;;;;;;;;;;;;;24.49;44.10;96412.28;5073813;28;20020;-73
2022/07/27 11:00:49;;;;;;;;;;;;;;;24.46;44.76;96419.03;5073906;28;20299;-73
2022/07/27 11:03:22;;;;;;;;;;;;;;;24.41;43.88;96423.72;5074081;28;20004;-73
2022/07/27 11:06:03;;;;;;;;;;;;;;;24.22;44.16;96410.53;5073727;28;19952;-73
2022/07/27 11:08:30;;;;;;;;;;;;;;;24.19;44.84;96427.19;5073888;28;19952;-73
2022/07/27 11:10:57;;;;;;;;;;;;;;;24.26;44.53;96423.00;5055705;28;19958;-73
2022/07/27 11:13:24;;;;;;;;;;;;;;;24.44;41.77;96402.44;5073371;28;19967;-72
2022/07/27 11:15:54;;;;;;;;;;;;;;;24.58;43.56;96409.63;5073578;28;19967;-73
2022/07/27 11:18:26;;;;;;;;;;;;;;;24.69;42.30;96398.34;5074138;28;19962;-72
2022/07/27 11:21:11;;;;;;;;;;;;;;;24.96;42.41;96395.72;5073500;28;20436;-73
2022/07/27 11:23:37;;;;;;;;;;;;;;;25.35;42.59;96389.50;5073723;28;19953;-73
2022/07/27 11:26:02;;;;;;;;;;;;;;;25.65;42.78;96386.97;5073349;28;20064;-72
2022/07/27 11:28:29;;;;;;;;;;;;;;;25.80;38.46;96366.91;5073886;28;19955;-72
2022/07/27 11:30:55;;;;;;;;;;;;;;;25.66;40.67;96391.22;5073835;28;19963;-72
2022/07/27 11:33:21;;;;;;;;;;;;;;;25.80;41.52;96393.75;5073090;28;19963;-73
2022/07/27 11:35:52;;;;;;;;;;;;;;;25.79;41.10;96390.31;5073591;28;20371;-73
2022/07/27 11:38:18;;;;;;;;;;;;;;;25.92;39.90;96378.59;5073697;28;19953;-73
2022/07/27 11:40:45;;;;;;;;;;;;;;;26.10;39.50;96376.69;5073173;28;19968;-72
2022/07/27 11:43:11;;;;;;;;;;;;;;;25.88;39.62;96380.31;5073794;28;19971;-73
2022/07/27 11:45:40;;;;;;;;;;;;;;;25.90;40.70;96396.94;5073453;28;19955;-73
2022/07/27 11:48:09;;;;;;;;;;;;;;;26.04;40.23;96390.59;5073524;28;19957;-73
2022/07/27 11:50:35;;;;;;;;;;;;;;;25.89;38.04;96373.88;5073493;28;19982;-73
2022/07/27 11:53:01;;;;;;;;;;;;;;;26.01;39.24;96375.13;5073853;28;19975;-73
2022/07/27 11:55:27;;;;;;;;;;;;;;;26.21;37.62;96373.66;5077389;28;20384;-72
2022/07/27 11:58:01;;;;;;;;;;;;;;;26.37;37.76;96381.97;5077402;28;20414;-72
2022/07/27 12:00:38;;;;;;;;;;;;;;;26.36;37.61;96378.50;5077623;28;20319;-75
2022/07/27 12:03:04;;;;;;;;;;;;;;;26.11;38.52;96386.31;5063805;28;19956;-73
2022/07/27 12:05:29;;;;;;;;;;;;;;;25.83;37.88;96380.50;5077183;28;19964;-76
2022/07/27 12:07:55;;;;;;;;;;;;;;;25.60;38.77;96379.06;5077357;28;19966;-72
2022/07/27 12:10:21;;;;;;;;;;;;;;;25.40;39.14;96393.94;5076984;28;19965;-73
2022/07/27 12:12:48;;;;;;;;;;;;;;;25.23;39.73;96394.69;5077065;28;19980;-73
2022/07/27 12:15:18;;;;;;;;;;;;;;;25.15;40.56;96398.91;5077064;28;19958;-72
2022/07/27 12:17:47;;;;;;;;;;;;;;;25.09;39.78;96400.97;5077447;28;19951;-72
2022/07/27 12:20:14;;;;;;;;;;;;;;;25.04;40.01;96403.00;5076770;28;20350;-73
2022/07/27 12:22:44;;;;;;;;;;;;;;;24.98;37.91;96388.94;5076683;28;19961;-72
2022/07/27 12:25:24;;;;;;;;;;;;;;;24.87;39.25;96396.47;5077461;28;20342;-73
2022/07/27 12:28:03;;;;;;;;;;;;;;;24.91;39.88;96402.03;5063010;28;19957;-72
2022/07/27 12:30:29;;;;;;;;;;;;;;;25.19;38.73;96399.88;5076592;28;19951;-72
2022/07/27 12:32:56;;;;;;;;;;;;;;;25.38;38.90;96377.34;5076548;28;19981;-73
2022/07/27 12:35:23;;;;;;;;;;;;;;;25.44;39.61;96392.19;5076509;28;20034;-73
2022/07/27 12:38:00;;;;;;;;;;;;;;;25.45;38.74;96385.69;5076732;28;19955;-73
2022/07/27 12:40:26;;;;;;;;;;;;;;;25.28;38.99;96392.66;5068697;28;20319;-73
2022/07/27 12:43:03;;;;;;;;;;;;;;;25.27;39.53;96388.38;5076352;28;19968;-73
2022/07/27 12:45:30;;;;;;;;;;;;;;;25.35;39.65;96392.19;5076623;28;19962;-73
2022/07/27 12:48:06;;;;;;;;;;;;;;;25.55;38.84;96379.25;5076290;28;19954;-73
2022/07/27 12:50:32;;;;;;;;;;;;;;;25.80;37.09;96366.91;5075890;28;19959;-73
2022/07/27 12:52:58;;;;;;;;;;;;;;;25.61;38.33;96384.13;5076496;28;19978;-73